createdAt,value
2023-05-17T00:01:56.845Z,100.00
2023-05-17T00:04:25.425Z,100.00
2023-05-17T00:06:53.897Z,100.00
2023-05-17T00:09:22.326Z,100.00
2023-05-17T00:11:50.751Z,100.00
2023-05-17T00:14:21.047Z,100.00
2023-05-17T00:16:49.630Z,100.00
2023-05-17T00:19:18.297Z,100.00
2023-05-17T00:21:47.084Z,100.00
2023-05-17T00:24:15.483Z,100.00
2023-05-17T00:26:44.365Z,100.00
2023-05-17T00:29:12.889Z,100.00
2023-05-17T00:31:42.813Z,100.00
2023-05-17T00:34:11.576Z,100.00
2023-05-17T00:36:40.060Z,100.00
2023-05-17T00:39:09.591Z,100.00
2023-05-17T00:41:39.009Z,100.00
2023-05-17T00:44:07.658Z,100.00
2023-05-17T00:46:36.178Z,100.00
2023-05-17T00:49:06.104Z,100.00
2023-05-17T00:51:36.191Z,100.00
2023-05-17T00:54:05.682Z,100.00
2023-05-17T00:56:34.479Z,100.00
2023-05-17T00:59:05.353Z,100.00
2023-05-17T01:01:35.187Z,100.00
2023-05-17T01:04:05.628Z,100.00
2023-05-17T01:06:35.415Z,100.00
2023-05-17T01:09:04.073Z,100.00
2023-05-17T01:11:44.210Z,100.00
2023-05-17T01:14:26.528Z,100.00
2023-05-17T01:17:00.261Z,100.00
2023-05-17T01:19:51.280Z,100.00
2023-05-17T01:22:33.032Z,100.00
2023-05-17T01:25:12.795Z,100.00
2023-05-17T01:27:46.591Z,100.00
2023-05-17T01:30:18.183Z,100.00
2023-05-17T01:32:47.485Z,100.00
2023-05-17T01:35:16.408Z,100.00
2023-05-17T01:37:44.897Z,100.00
2023-05-17T01:40:13.808Z,100.00
2023-05-17T01:42:44.667Z,100.00
2023-05-17T01:45:19.475Z,100.00
2023-05-17T01:47:54.645Z,100.00
2023-05-17T01:50:28.160Z,100.00
2023-05-17T01:53:01.375Z,100.00
2023-05-17T01:55:43.060Z,100.00
2023-05-17T01:58:14.545Z,100.00
2023-05-17T02:00:45.465Z,100.00
2023-05-17T02:03:15.702Z,100.00
2023-05-17T02:05:44.156Z,100.00
2023-05-17T02:08:12.844Z,100.00
2023-05-17T02:10:41.671Z,100.00
2023-05-17T02:13:10.245Z,100.00
2023-05-17T02:15:40.783Z,100.00
2023-05-17T02:18:09.383Z,100.00
2023-05-17T02:20:38.084Z,100.00
2023-05-17T02:23:06.633Z,100.00
2023-05-17T02:25:35.092Z,100.00
2023-05-17T02:28:03.666Z,100.00
2023-05-17T02:30:32.409Z,100.00
2023-05-17T02:33:02.422Z,100.00
2023-05-17T02:35:31.196Z,100.00
2023-05-17T02:37:59.809Z,100.00
2023-05-17T02:40:28.235Z,100.00
2023-05-17T02:42:56.647Z,100.00
2023-05-17T02:45:25.067Z,100.00
2023-05-17T02:47:53.768Z,100.00
2023-05-17T02:50:23.807Z,100.00
2023-05-17T02:52:52.687Z,100.00
2023-05-17T02:55:21.694Z,100.00
2023-05-17T02:57:50.275Z,100.00
2023-05-17T03:00:22.782Z,100.00
2023-05-17T03:02:51.336Z,100.00
2023-05-17T03:05:20.184Z,100.00
2023-05-17T03:07:52.948Z,100.00
2023-05-17T03:10:21.671Z,100.00
2023-05-17T03:12:50.364Z,100.00
2023-05-17T03:15:22.011Z,100.00
2023-05-17T03:17:50.682Z,100.00
2023-05-17T03:20:19.850Z,100.00
2023-05-17T03:22:50.116Z,100.00
2023-05-17T03:25:20.431Z,100.00
2023-05-17T03:27:49.422Z,100.00
2023-05-17T03:30:18.448Z,100.00
2023-05-17T03:32:48.178Z,100.00
2023-05-17T03:35:16.914Z,100.00
2023-05-17T03:37:49.309Z,100.00
2023-05-17T03:40:18.060Z,100.00
2023-05-17T03:42:51.643Z,100.00
2023-05-17T03:45:21.406Z,100.00
2023-05-17T03:47:49.842Z,100.00
2023-05-17T03:50:18.661Z,100.00
2023-05-17T03:52:47.260Z,100.00
2023-05-17T03:55:16.035Z,100.00
2023-05-17T03:57:44.531Z,100.00
2023-05-17T04:00:21.402Z,100.00
2023-05-17T04:02:50.046Z,100.00
2023-05-17T04:05:20.127Z,100.00
2023-05-17T04:07:49.807Z,100.00
2023-05-17T04:10:18.884Z,100.00
2023-05-17T04:12:47.759Z,100.00
2023-05-17T04:15:18.848Z,100.00
2023-05-17T04:17:47.410Z,100.00
2023-05-17T04:20:16.476Z,100.00
2023-05-17T04:22:45.613Z,100.00
2023-05-17T04:25:14.341Z,100.00
2023-05-17T04:27:43.389Z,100.00
2023-05-17T04:30:12.868Z,100.00
2023-05-17T04:32:43.350Z,100.00
2023-05-17T04:35:12.423Z,100.00
2023-05-17T04:37:43.841Z,100.00
2023-05-17T04:40:23.591Z,100.00
2023-05-17T04:42:52.786Z,100.00
2023-05-17T04:45:21.830Z,100.00
2023-05-17T04:47:52.950Z,100.00
2023-05-17T04:50:21.702Z,100.00
2023-05-17T04:52:50.257Z,100.00
2023-05-17T04:55:19.773Z,100.00
2023-05-17T04:57:48.588Z,100.00
2023-05-17T05:00:21.020Z,100.00
2023-05-17T05:02:58.212Z,100.00
2023-05-17T05:05:27.793Z,100.00
2023-05-17T05:07:56.911Z,100.00
2023-05-17T05:10:25.642Z,100.00
2023-05-17T05:12:54.547Z,100.00
2023-05-17T05:15:23.391Z,100.00
2023-05-17T05:17:58.753Z,100.00
2023-05-17T05:20:28.248Z,100.00
2023-05-17T05:22:58.965Z,100.00
2023-05-17T05:25:29.010Z,100.00
2023-05-17T05:27:57.940Z,100.00
2023-05-17T05:30:26.850Z,100.00
2023-05-17T05:32:58.611Z,100.00
2023-05-17T05:35:30.543Z,100.00
2023-05-17T05:38:00.671Z,100.00
2023-05-17T05:40:29.710Z,100.00
2023-05-17T05:42:58.612Z,100.00
2023-05-17T05:45:27.248Z,100.00
2023-05-17T05:48:01.193Z,100.00
2023-05-17T05:50:30.298Z,100.00
2023-05-17T05:53:17.377Z,100.00
2023-05-17T05:55:50.512Z,100.00
2023-05-17T05:58:19.659Z,100.00
2023-05-17T06:00:49.272Z,100.00
2023-05-17T06:03:19.336Z,100.00
2023-05-17T06:05:48.013Z,100.00
2023-05-17T06:08:16.601Z,100.00
2023-05-17T06:10:45.137Z,100.00
2023-05-17T06:13:13.986Z,100.00
2023-05-17T06:15:42.744Z,100.00
2023-05-17T06:18:11.415Z,100.00
2023-05-17T06:20:41.426Z,100.00
2023-05-17T06:23:09.999Z,100.00
2023-05-17T06:25:38.711Z,100.00
2023-05-17T06:28:09.431Z,100.00
2023-05-17T06:30:38.011Z,100.00
2023-05-17T06:33:06.858Z,100.00
2023-05-17T06:35:51.509Z,100.00
2023-05-17T06:38:25.408Z,100.00
2023-05-17T06:40:55.392Z,100.00
2023-05-17T06:43:24.386Z,100.00
2023-05-17T06:45:52.957Z,100.00
2023-05-17T06:48:21.879Z,100.00
2023-05-17T06:50:50.535Z,100.00
2023-05-17T06:53:19.054Z,100.00
2023-05-17T06:55:49.096Z,100.00
2023-05-17T06:58:17.685Z,100.00
2023-05-17T07:00:46.388Z,100.00
2023-05-17T07:03:15.068Z,100.00
2023-05-17T07:05:43.805Z,100.00
2023-05-17T07:08:12.580Z,100.00
2023-05-17T07:10:41.085Z,100.00
2023-05-17T07:13:11.037Z,100.00
2023-05-17T07:15:39.644Z,100.00
2023-05-17T07:18:08.530Z,100.00
2023-05-17T07:20:37.612Z,100.00
2023-05-17T07:23:06.316Z,100.00
2023-05-17T07:25:38.833Z,100.00
2023-05-17T07:28:08.058Z,100.00
2023-05-17T07:30:38.012Z,100.00
2023-05-17T07:33:06.805Z,100.00
2023-05-17T07:35:35.599Z,100.00
2023-05-17T07:38:04.353Z,100.00
2023-05-17T07:40:33.064Z,100.00
2023-05-17T07:43:01.731Z,100.00
2023-05-17T07:45:30.710Z,100.00
2023-05-17T07:48:00.813Z,100.00
2023-05-17T07:50:30.786Z,100.00
2023-05-17T07:52:59.332Z,100.00
2023-05-17T07:55:27.987Z,100.00
2023-05-17T07:57:56.785Z,100.00
2023-05-17T08:00:26.634Z,100.00
2023-05-17T08:02:55.459Z,100.00
2023-05-17T08:05:25.938Z,100.00
2023-05-17T08:07:54.664Z,100.00
2023-05-17T08:10:23.723Z,100.00
2023-05-17T08:12:52.256Z,100.00
2023-05-17T08:15:21.873Z,100.00
2023-05-17T08:17:53.125Z,100.00
2023-05-17T08:20:22.164Z,100.00
2023-05-17T08:22:52.341Z,100.00
2023-05-17T08:25:21.810Z,100.00
2023-05-17T08:27:50.321Z,100.00
2023-05-17T08:30:28.602Z,100.00
2023-05-17T08:33:00.703Z,100.00
2023-05-17T08:35:33.225Z,100.00
2023-05-17T08:38:03.754Z,100.00
2023-05-17T08:40:33.372Z,100.00
2023-05-17T08:43:03.586Z,100.00
2023-05-17T08:45:33.034Z,100.00
2023-05-17T08:48:05.417Z,100.00
2023-05-17T08:50:36.211Z,100.00
2023-05-17T08:53:06.642Z,100.00
2023-05-17T08:55:36.552Z,100.00
2023-05-17T08:58:07.321Z,100.00
2023-05-17T09:00:37.531Z,100.00
2023-05-17T09:03:07.572Z,100.00
2023-05-17T09:05:36.606Z,100.00
2023-05-17T09:08:07.264Z,100.00
2023-05-17T09:10:36.041Z,100.00
2023-05-17T09:13:04.720Z,100.00
2023-05-17T09:15:36.551Z,100.00
2023-05-17T09:18:05.826Z,100.00
2023-05-17T09:20:36.658Z,100.00
2023-05-17T09:23:08.276Z,100.00
2023-05-17T09:25:37.696Z,100.00
2023-05-17T09:28:09.002Z,100.00
2023-05-17T09:30:39.732Z,100.00
2023-05-17T09:33:09.698Z,100.00
2023-05-17T09:35:39.406Z,100.00
2023-05-17T09:38:11.488Z,100.00
2023-05-17T09:40:41.626Z,100.00
2023-05-17T09:43:10.666Z,96.30
2023-05-17T09:45:39.539Z,99.52
2023-05-17T09:48:16.153Z,93.76
2023-05-17T09:50:47.071Z,98.82
2023-05-17T09:53:31.097Z,95.81
2023-05-17T09:56:01.880Z,98.28
2023-05-17T09:58:33.712Z,98.61
2023-05-17T10:01:05.358Z,90.53
2023-05-17T10:03:35.907Z,84.23
2023-05-17T10:06:11.245Z,83.47
2023-05-17T10:08:46.180Z,81.49
2023-05-17T10:11:14.971Z,84.19
2023-05-17T10:13:49.062Z,83.10
2023-05-17T10:16:19.615Z,81.52
2023-05-17T10:18:49.232Z,82.51
2023-05-17T10:21:18.637Z,74.73
2023-05-17T10:23:49.422Z,68.80
2023-05-17T10:26:18.791Z,69.61
2023-05-17T10:28:51.186Z,67.17
2023-05-17T10:31:20.105Z,68.47
2023-05-17T10:33:52.152Z,64.50
2023-05-17T10:36:21.709Z,59.18
2023-05-17T10:38:53.199Z,61.53
2023-05-17T10:41:24.405Z,63.85
2023-05-17T10:43:54.369Z,63.39
2023-05-17T10:46:24.722Z,61.69
2023-05-17T10:48:54.274Z,59.80
2023-05-17T10:51:25.268Z,57.74
2023-05-17T10:54:10.814Z,52.72
2023-05-17T10:56:42.877Z,55.06
2023-05-17T10:59:23.425Z,54.54
2023-05-17T11:02:01.455Z,54.24
2023-05-17T11:04:34.750Z,56.49
2023-05-17T11:07:25.174Z,53.31
2023-05-17T11:09:56.722Z,53.54
2023-05-17T11:12:35.476Z,51.37
2023-05-17T11:15:10.724Z,55.49
2023-05-17T11:17:51.708Z,52.08
2023-05-17T11:20:35.429Z,54.72
2023-05-17T11:23:06.179Z,53.11
2023-05-17T11:25:39.891Z,52.16
2023-05-17T11:28:10.334Z,56.41
2023-05-17T11:30:51.302Z,54.13
2023-05-17T11:33:33.192Z,53.48
2023-05-17T11:36:07.598Z,50.46
2023-05-17T11:38:36.580Z,53.08
2023-05-17T11:43:53.931Z,53.22
2023-05-17T11:46:24.413Z,53.25
2023-05-17T11:48:54.588Z,52.35
2023-05-17T11:51:25.172Z,50.98
2023-05-17T11:53:56.100Z,50.69
2023-05-17T11:56:42.022Z,49.95
2023-05-17T11:59:11.718Z,51.30
2023-05-17T12:01:47.279Z,49.25
2023-05-17T12:04:17.361Z,50.78
2023-05-17T12:06:46.368Z,49.60
2023-05-17T12:09:18.224Z,45.94
2023-05-17T12:11:48.907Z,45.03
2023-05-17T12:14:18.570Z,46.08
2023-05-17T12:16:52.257Z,45.77
2023-05-17T12:19:22.366Z,44.51
2023-05-17T12:21:51.670Z,43.68
2023-05-17T12:24:20.448Z,42.69
2023-05-17T12:26:50.538Z,41.57
2023-05-17T12:29:23.244Z,41.41
2023-05-17T12:31:55.292Z,42.07
2023-05-17T12:34:24.527Z,43.61
2023-05-17T12:36:55.127Z,42.34
2023-05-17T12:39:24.919Z,42.23
2023-05-17T12:41:55.545Z,41.11
2023-05-17T12:44:24.554Z,41.79
2023-05-17T12:46:54.179Z,42.60
2023-05-17T12:49:23.538Z,42.16
2023-05-17T12:51:52.256Z,42.85
2023-05-17T12:54:29.227Z,40.95
2023-05-17T12:56:59.409Z,42.37
2023-05-17T12:59:29.304Z,41.91
2023-05-17T13:02:00.838Z,40.63
2023-05-17T13:04:34.419Z,39.75
2023-05-17T13:07:04.961Z,38.25
2023-05-17T13:09:34.705Z,39.51
2023-05-17T13:12:08.233Z,39.65
2023-05-17T13:14:38.722Z,39.49
2023-05-17T13:17:09.286Z,38.68
2023-05-17T13:19:39.217Z,39.69
2023-05-17T13:22:08.382Z,39.89
2023-05-17T13:24:38.421Z,38.94
2023-05-17T13:27:09.936Z,38.35
2023-05-17T13:29:43.329Z,38.58
2023-05-17T13:32:13.912Z,40.03
2023-05-17T13:34:42.694Z,40.33
2023-05-17T13:37:12.658Z,40.22
2023-05-17T13:39:42.182Z,40.64
2023-05-17T13:42:13.716Z,40.71
2023-05-17T13:44:42.486Z,40.09
2023-05-17T13:47:11.233Z,39.25
2023-05-17T13:49:39.790Z,38.50
2023-05-17T13:52:09.648Z,38.72
2023-05-17T13:54:39.307Z,38.07
2023-05-17T13:57:08.495Z,38.63
2023-05-17T13:59:39.448Z,38.37
2023-05-17T14:02:09.319Z,38.97
2023-05-17T14:04:37.875Z,38.48
2023-05-17T14:07:06.722Z,39.52
2023-05-17T14:09:36.865Z,39.59
2023-05-17T14:12:06.290Z,39.00
2023-05-17T14:14:34.947Z,39.04
2023-05-17T14:17:05.248Z,38.35
2023-05-17T14:19:33.874Z,38.48
2023-05-17T14:22:02.573Z,38.46
2023-05-17T14:24:31.132Z,38.34
2023-05-17T14:26:59.834Z,37.93
2023-05-17T14:29:30.201Z,37.94
2023-05-17T14:31:58.789Z,38.13
2023-05-17T14:34:28.848Z,38.00
2023-05-17T14:36:58.068Z,38.46
2023-05-17T14:39:26.930Z,38.97
2023-05-17T14:41:55.809Z,39.32
2023-05-17T14:44:24.655Z,38.65
2023-05-17T14:46:53.392Z,38.60
2023-05-17T14:49:22.346Z,38.91
2023-05-17T14:51:52.637Z,38.28
2023-05-17T14:54:21.518Z,38.95
2023-05-17T14:56:50.086Z,39.22
2023-05-17T14:59:18.749Z,39.37
2023-05-17T15:01:47.560Z,39.47
2023-05-17T15:04:16.404Z,39.80
2023-05-17T15:06:45.915Z,38.79
2023-05-17T15:09:18.355Z,37.86
2023-05-17T15:11:47.159Z,38.32
2023-05-17T15:14:19.286Z,39.01
2023-05-17T15:16:48.144Z,39.50
2023-05-17T15:19:17.175Z,39.25
2023-05-17T15:21:46.785Z,39.37
2023-05-17T15:24:17.989Z,39.52
2023-05-17T15:26:46.837Z,39.76
2023-05-17T15:29:15.592Z,39.66
2023-05-17T15:31:44.437Z,39.66
2023-05-17T15:34:13.537Z,39.78
2023-05-17T15:36:42.422Z,39.81
2023-05-17T15:39:11.123Z,39.89
2023-05-17T15:41:41.284Z,39.67
2023-05-17T15:44:10.033Z,39.45
2023-05-17T15:46:39.209Z,39.31
2023-05-17T15:49:07.836Z,39.32
2023-05-17T15:51:36.347Z,39.56
2023-05-17T15:54:05.281Z,39.39
2023-05-17T15:56:33.948Z,39.36
2023-05-17T15:59:04.156Z,39.63
2023-05-17T16:01:32.831Z,39.10
2023-05-17T16:04:01.634Z,38.91
2023-05-17T16:06:36.076Z,38.89
2023-05-17T16:09:04.835Z,39.26
2023-05-17T16:11:33.646Z,39.16
2023-05-17T16:14:03.684Z,39.18
2023-05-17T16:16:32.416Z,39.38
2023-05-17T16:19:01.414Z,39.28
2023-05-17T16:21:30.209Z,39.30
2023-05-17T16:23:58.829Z,39.23
2023-05-17T16:26:27.960Z,39.61
2023-05-17T16:28:58.994Z,39.73
2023-05-17T16:31:29.478Z,39.44
2023-05-17T16:33:58.139Z,39.71
2023-05-17T16:36:27.382Z,39.98
2023-05-17T16:38:55.997Z,40.13
2023-05-17T16:41:26.269Z,39.79
2023-05-17T16:43:54.943Z,39.98
2023-05-17T16:46:25.016Z,39.37
2023-05-17T16:48:55.744Z,39.23
2023-05-17T16:51:24.600Z,39.51
2023-05-17T16:53:53.208Z,39.58
2023-05-17T16:56:22.422Z,39.75
2023-05-17T16:58:52.501Z,39.54
2023-05-17T17:01:21.461Z,39.51
2023-05-17T17:03:54.922Z,39.55
2023-05-17T17:06:27.345Z,39.23
2023-05-17T17:08:56.300Z,39.79
2023-05-17T17:11:24.900Z,40.42
2023-05-17T17:13:53.595Z,40.56
2023-05-17T17:16:22.854Z,40.33
2023-05-17T17:18:51.547Z,40.78
2023-05-17T17:21:20.607Z,40.54
2023-05-17T17:23:51.162Z,39.83
2023-05-17T17:26:19.877Z,40.46
2023-05-17T17:28:48.609Z,40.29
2023-05-17T17:31:18.370Z,40.07
2023-05-17T17:33:46.869Z,40.40
2023-05-17T17:36:15.872Z,40.37
2023-05-17T17:38:45.040Z,40.73
2023-05-17T17:41:15.202Z,41.10
2023-05-17T17:43:47.057Z,41.04
2023-05-17T17:46:15.859Z,41.41
2023-05-17T17:48:44.485Z,41.71
2023-05-17T17:51:13.215Z,42.26
2023-05-17T17:53:42.570Z,42.40
2023-05-17T17:56:11.222Z,42.59
2023-05-17T17:58:41.467Z,43.04
2023-05-17T18:01:10.202Z,42.94
2023-05-17T18:03:38.783Z,43.13
2023-05-17T18:06:07.858Z,43.29
2023-05-17T18:08:36.407Z,43.71
2023-05-17T18:11:05.307Z,44.03
2023-05-17T18:13:34.189Z,43.89
2023-05-17T18:16:04.474Z,44.25
2023-05-17T18:18:33.263Z,44.79
2023-05-17T18:21:02.197Z,45.18
2023-05-17T18:23:30.980Z,45.55
2023-05-17T18:25:59.591Z,46.17
2023-05-17T18:28:41.337Z,46.74
2023-05-17T18:31:14.279Z,46.81
2023-05-17T18:33:43.053Z,47.74
2023-05-17T18:36:11.961Z,49.18
2023-05-17T18:38:40.887Z,49.42
2023-05-17T18:41:09.661Z,50.41
2023-05-17T18:43:38.436Z,51.83
2023-05-17T18:46:07.074Z,52.80
2023-05-17T18:48:37.105Z,53.19
2023-05-17T18:51:06.905Z,54.21
2023-05-17T18:53:36.185Z,55.52
2023-05-17T18:56:04.875Z,56.70
2023-05-17T18:58:33.539Z,58.27
2023-05-17T19:01:02.848Z,60.14
2023-05-17T19:03:32.974Z,61.73
2023-05-17T19:06:03.470Z,62.15
2023-05-17T19:08:32.406Z,63.84
2023-05-17T19:11:04.205Z,64.88
2023-05-17T19:13:50.425Z,66.79
2023-05-17T19:16:21.387Z,68.23
2023-05-17T19:18:50.161Z,69.45
2023-05-17T19:21:20.347Z,71.12
2023-05-17T19:23:48.983Z,73.61
2023-05-17T19:26:17.609Z,76.37
2023-05-17T19:28:46.260Z,76.74
2023-05-17T19:31:14.747Z,86.00
2023-05-17T19:33:43.285Z,92.04
2023-05-17T19:36:12.111Z,96.57
2023-05-17T19:38:42.031Z,100.00
2023-05-17T19:41:10.594Z,100.00
2023-05-17T19:43:39.384Z,100.00
2023-05-17T19:46:10.853Z,100.00
2023-05-17T19:48:40.088Z,100.00
2023-05-17T19:51:08.609Z,100.00
2023-05-17T19:53:50.694Z,100.00
2023-05-17T19:56:22.289Z,100.00
2023-05-17T19:58:50.795Z,100.00
2023-05-17T20:01:19.460Z,100.00
2023-05-17T20:03:48.341Z,100.00
2023-05-17T20:06:17.235Z,100.00
2023-05-17T20:08:46.745Z,100.00
2023-05-17T20:11:15.588Z,100.00
2023-05-17T20:13:45.758Z,100.00
2023-05-17T20:16:14.717Z,100.00
2023-05-17T20:18:44.521Z,100.00
2023-05-17T20:21:18.281Z,100.00
2023-05-17T20:23:47.040Z,100.00
2023-05-17T20:26:19.180Z,100.00
2023-05-17T20:28:49.464Z,100.00
2023-05-17T20:31:18.339Z,100.00
2023-05-17T20:33:47.050Z,100.00
2023-05-17T20:36:16.286Z,100.00
2023-05-17T20:38:44.918Z,100.00
2023-05-17T20:41:15.079Z,100.00
2023-05-17T20:43:46.435Z,100.00
2023-05-17T20:46:16.769Z,100.00
2023-05-17T20:48:47.940Z,100.00
2023-05-17T20:51:17.879Z,100.00
2023-05-17T20:53:46.947Z,100.00
2023-05-17T20:56:16.348Z,100.00
2023-05-17T20:58:45.079Z,100.00
2023-05-17T21:01:15.367Z,100.00
2023-05-17T21:03:44.289Z,100.00
2023-05-17T21:06:13.209Z,100.00
2023-05-17T21:08:42.932Z,100.00
2023-05-17T21:11:15.286Z,100.00
2023-05-17T21:13:44.000Z,100.00
2023-05-17T21:16:12.702Z,100.00
2023-05-17T21:18:42.694Z,100.00
2023-05-17T21:21:11.343Z,100.00
2023-05-17T21:23:40.190Z,100.00
2023-05-17T21:26:09.157Z,100.00
2023-05-17T21:28:37.784Z,100.00
2023-05-17T21:31:06.654Z,100.00
2023-05-17T21:33:35.203Z,100.00
2023-05-17T21:36:05.765Z,100.00
2023-05-17T21:38:34.325Z,100.00
2023-05-17T21:41:03.157Z,100.00
2023-05-17T21:43:31.603Z,100.00
2023-05-17T21:46:00.261Z,100.00
2023-05-17T21:48:28.913Z,100.00
2023-05-17T21:50:57.697Z,100.00
2023-05-17T21:53:27.654Z,100.00
2023-05-17T21:56:02.595Z,100.00
2023-05-17T21:58:32.485Z,100.00
2023-05-17T22:01:01.270Z,100.00
2023-05-17T22:03:30.167Z,100.00
2023-05-17T22:05:59.103Z,100.00
2023-05-17T22:08:29.307Z,100.00
2023-05-17T22:10:57.846Z,100.00
2023-05-17T22:13:26.996Z,100.00
2023-05-17T22:15:57.664Z,100.00
2023-05-17T22:18:27.527Z,100.00
2023-05-17T22:20:59.492Z,100.00
2023-05-17T22:23:29.679Z,100.00
2023-05-17T22:26:00.471Z,100.00
2023-05-17T22:28:29.830Z,100.00
2023-05-17T22:30:58.334Z,100.00
2023-05-17T22:33:29.699Z,100.00
2023-05-17T22:35:58.834Z,100.00
2023-05-17T22:38:27.514Z,100.00
2023-05-17T22:40:57.472Z,100.00
2023-05-17T22:43:28.217Z,100.00
2023-05-17T22:45:59.976Z,100.00
2023-05-17T22:48:30.616Z,100.00
2023-05-17T22:51:01.133Z,100.00
2023-05-17T22:53:29.871Z,100.00
2023-05-17T22:56:00.009Z,100.00
2023-05-17T22:58:28.592Z,100.00
2023-05-17T23:00:57.165Z,100.00
2023-05-17T23:03:25.783Z,100.00
2023-05-17T23:06:03.152Z,100.00
2023-05-17T23:08:33.392Z,100.00
2023-05-17T23:11:05.023Z,100.00
2023-05-17T23:13:33.973Z,100.00
2023-05-17T23:16:02.807Z,100.00
2023-05-17T23:18:31.367Z,100.00
2023-05-17T23:21:00.269Z,100.00
2023-05-17T23:23:29.982Z,100.00
2023-05-17T23:25:58.952Z,100.00
2023-05-17T23:28:28.985Z,100.00
2023-05-17T23:31:02.389Z,100.00
2023-05-17T23:33:31.636Z,100.00
2023-05-17T23:36:00.167Z,100.00
2023-05-17T23:38:28.616Z,100.00
2023-05-17T23:40:58.359Z,100.00
2023-05-17T23:43:28.244Z,100.00
2023-05-17T23:45:57.635Z,100.00
2023-05-17T23:48:26.753Z,100.00
2023-05-17T23:50:55.480Z,100.00
2023-05-17T23:53:26.213Z,100.00
2023-05-17T23:55:54.861Z,100.00
2023-05-17T23:58:23.309Z,100.00
